Camas, Washington
Current Conditions -  °F | °C
As of 11:53 PM on Thursday 23 Oct 2014 (Local Time) from KTTD Reporting Station
Overcast Overcast  
Wind Chill: 53°   Ceiling: 6500
Heat Index: 53°   Visibility: 10mi
Dew Point: 50°   Wind: 5mph
Humidity: 89%   Direction: 110°ESE
Pressure: 30"   Gusts: NA
Location:  45.59°N, 122.4°W
Report Text: KTTD 240653Z AUTO 11004KT 10SM BKN065 OVC095 12/10 A3000 RMK AO2 SLP159 T01170100 TSNO
Loading
Personal Weather Stations






























Interactive Weather Map New forecast layout! Learn more

10-Day Weather Forecast

Advertisements
Track Severe Weather on mobile